sensor_id;sensor_type;location;lat;lon;timestamp;pressure;altitude;pressure_sealevel;temperature;humidity
77027;BME280;65956;52.986;17.490;2023-12-04T17:06:22;100619.70;;;-4.37;91.32
77027;BME280;65956;52.986;17.490;2023-12-04T17:08:49;100616.27;;;-4.35;91.26
77027;BME280;65956;52.986;17.490;2023-12-04T17:11:15;100618.20;;;-4.31;91.04
77027;BME280;65956;52.986;17.490;2023-12-04T17:13:41;100615.55;;;-4.29;91.52
77027;BME280;65956;52.986;17.490;2023-12-04T17:16:07;100613.81;;;-4.26;91.53
77027;BME280;65956;52.986;17.490;2023-12-04T17:18:35;100615.02;;;-4.22;91.23
77027;BME280;65956;52.986;17.490;2023-12-04T17:21:03;100613.70;;;-4.21;91.65
77027;BME280;65956;52.986;17.490;2023-12-04T17:23:29;100613.45;;;-4.20;91.30
77027;BME280;65956;52.986;17.490;2023-12-04T17:25:55;100620.75;;;-4.19;91.46
77027;BME280;65956;52.986;17.490;2023-12-04T17:28:21;100618.13;;;-4.19;91.23
77027;BME280;65956;52.986;17.490;2023-12-04T17:30:48;100612.41;;;-4.20;91.30
77027;BME280;65956;52.986;17.490;2023-12-04T17:33:14;100614.48;;;-4.19;91.35
77027;BME280;65956;52.986;17.490;2023-12-04T17:35:40;100611.93;;;-4.19;91.56
77027;BME280;65956;52.986;17.490;2023-12-04T17:38:06;100616.13;;;-4.18;91.54
77027;BME280;65956;52.986;17.490;2023-12-04T17:40:33;100613.03;;;-4.18;91.56
77027;BME280;65956;52.986;17.490;2023-12-04T17:42:59;100611.27;;;-4.17;91.31
77027;BME280;65956;52.986;17.490;2023-12-04T17:45:25;100610.25;;;-4.16;91.69
77027;BME280;65956;52.986;17.490;2023-12-04T17:47:53;100605.36;;;-4.15;91.86
77027;BME280;65956;52.986;17.490;2023-12-04T17:50:19;100601.59;;;-4.13;91.71
77027;BME280;65956;52.986;17.490;2023-12-04T17:52:45;100599.32;;;-4.12;91.76
77027;BME280;65956;52.986;17.490;2023-12-04T17:55:11;100596.23;;;-4.11;91.59
77027;BME280;65956;52.986;17.490;2023-12-04T17:57:37;100597.60;;;-4.09;91.82
77027;BME280;65956;52.986;17.490;2023-12-04T18:00:05;100599.82;;;-4.08;91.58
77027;BME280;65956;52.986;17.490;2023-12-04T18:02:35;100598.73;;;-4.06;91.72
77027;BME280;65956;52.986;17.490;2023-12-04T18:05:02;100600.20;;;-4.04;91.92
77027;BME280;65956;52.986;17.490;2023-12-04T18:07:28;100594.92;;;-4.03;92.13
77027;BME280;65956;52.986;17.490;2023-12-04T18:09:54;100595.10;;;-4.02;91.92
77027;BME280;65956;52.986;17.490;2023-12-04T18:12:20;100595.38;;;-4.01;91.97
77027;BME280;65956;52.986;17.490;2023-12-04T18:14:46;100594.34;;;-4.02;92.00
77027;BME280;65956;52.986;17.490;2023-12-04T18:17:16;100589.55;;;-4.03;92.07
77027;BME280;65956;52.986;17.490;2023-12-04T18:19:42;100586.16;;;-4.04;91.96
77027;BME280;65956;52.986;17.490;2023-12-04T18:22:09;100586.67;;;-4.05;92.06
77027;BME280;65956;52.986;17.490;2023-12-04T18:24:36;100586.27;;;-4.08;91.86
77027;BME280;65956;52.986;17.490;2023-12-04T18:27:02;100581.98;;;-4.10;91.79
77027;BME280;65956;52.986;17.490;2023-12-04T18:29:29;100582.46;;;-4.10;92.09
77027;BME280;65956;52.986;17.490;2023-12-04T18:31:55;100577.67;;;-4.09;91.75
77027;BME280;65956;52.986;17.490;2023-12-04T18:34:21;100580.77;;;-4.08;92.13
77027;BME280;65956;52.986;17.490;2023-12-04T18:36:48;100579.30;;;-4.07;91.63
77027;BME280;65956;52.986;17.490;2023-12-04T18:39:23;100575.67;;;-4.06;91.92
77027;BME280;65956;52.986;17.490;2023-12-04T18:41:50;100575.60;;;-4.08;91.59
77027;BME280;65956;52.986;17.490;2023-12-04T18:44:17;100576.05;;;-4.10;91.92
77027;BME280;65956;52.986;17.490;2023-12-04T18:46:45;100574.02;;;-4.11;92.01
77027;BME280;65956;52.986;17.490;2023-12-04T18:49:15;100574.61;;;-4.13;91.93
77027;BME280;65956;52.986;17.490;2023-12-04T18:51:42;100577.05;;;-4.13;91.76
77027;BME280;65956;52.986;17.490;2023-12-04T18:54:08;100576.14;;;-4.12;91.64
77027;BME280;65956;52.986;17.490;2023-12-04T18:56:34;100578.81;;;-4.09;91.61
77027;BME280;65956;52.986;17.490;2023-12-04T18:59:00;100573.55;;;-4.08;91.64
77027;BME280;65956;52.986;17.490;2023-12-04T19:01:27;100569.13;;;-4.08;91.79
77027;BME280;65956;52.986;17.490;2023-12-04T19:03:53;100565.48;;;-4.08;91.43
77027;BME280;65956;52.986;17.490;2023-12-04T19:06:19;100560.30;;;-4.11;91.67
77027;BME280;65956;52.986;17.490;2023-12-04T19:08:45;100559.11;;;-4.14;91.82
77027;BME280;65956;52.986;17.490;2023-12-04T19:11:12;100555.29;;;-4.17;91.56
77027;BME280;65956;52.986;17.490;2023-12-04T19:13:39;100552.46;;;-4.19;91.85
77027;BME280;65956;52.986;17.490;2023-12-04T19:16:05;100553.59;;;-4.21;91.87
77027;BME280;65956;52.986;17.490;2023-12-04T19:18:31;100550.59;;;-4.21;92.22
77027;BME280;65956;52.986;17.490;2023-12-04T19:20:57;100552.99;;;-4.22;92.20
77027;BME280;65956;52.986;17.490;2023-12-04T19:23:23;100552.23;;;-4.20;91.96
77027;BME280;65956;52.986;17.490;2023-12-04T19:25:49;100550.56;;;-4.19;92.28
77027;BME280;65956;52.986;17.490;2023-12-04T19:28:15;100548.29;;;-4.18;92.07
77027;BME280;65956;52.986;17.490;2023-12-04T19:30:42;100544.30;;;-4.18;92.08
77027;BME280;65956;52.986;17.490;2023-12-04T19:33:08;100543.91;;;-4.19;92.15
77027;BME280;65956;52.986;17.490;2023-12-04T19:35:34;100547.78;;;-4.20;92.43
77027;BME280;65956;52.986;17.490;2023-12-04T19:38:00;100547.66;;;-4.20;92.17
77027;BME280;65956;52.986;17.490;2023-12-04T19:40:27;100541.89;;;-4.20;91.95
77027;BME280;65956;52.986;17.490;2023-12-04T19:42:54;100543.65;;;-4.19;92.05
77027;BME280;65956;52.986;17.490;2023-12-04T19:45:20;100543.17;;;-4.18;92.14
77027;BME280;65956;52.986;17.490;2023-12-04T19:47:46;100537.50;;;-4.18;92.29
77027;BME280;65956;52.986;17.490;2023-12-04T19:50:12;100533.20;;;-4.18;92.16
77027;BME280;65956;52.986;17.490;2023-12-04T19:52:39;100533.05;;;-4.18;92.03
77027;BME280;65956;52.986;17.490;2023-12-04T19:55:05;100532.83;;;-4.18;92.29
77027;BME280;65956;52.986;17.490;2023-12-04T19:57:32;100528.25;;;-4.17;92.15
77027;BME280;65956;52.986;17.490;2023-12-04T19:59:59;100528.41;;;-4.16;92.40
77027;BME280;65956;52.986;17.490;2023-12-04T20:02:26;100530.54;;;-4.14;91.98
77027;BME280;65956;52.986;17.490;2023-12-04T20:04:53;100529.61;;;-4.11;92.13
77027;BME280;65956;52.986;17.490;2023-12-04T20:07:19;100529.23;;;-4.12;92.06
77027;BME280;65956;52.986;17.490;2023-12-04T20:09:47;100529.99;;;-4.12;92.06
77027;BME280;65956;52.986;17.490;2023-12-04T20:12:13;100528.58;;;-4.14;91.93
77027;BME280;65956;52.986;17.490;2023-12-04T20:14:39;100528.15;;;-4.14;91.92
77027;BME280;65956;52.986;17.490;2023-12-04T20:17:05;100524.73;;;-4.14;91.93
77027;BME280;65956;52.986;17.490;2023-12-04T20:19:31;100523.63;;;-4.15;92.19
77027;BME280;65956;52.986;17.490;2023-12-04T20:21:57;100523.37;;;-4.14;92.10
77027;BME280;65956;52.986;17.490;2023-12-04T20:24:23;100513.45;;;-4.14;92.08
77027;BME280;65956;52.986;17.490;2023-12-04T20:26:49;100517.31;;;-4.15;92.40
77027;BME280;65956;52.986;17.490;2023-12-04T20:29:17;100515.30;;;-4.15;92.16
77027;BME280;65956;52.986;17.490;2023-12-04T20:31:43;100513.81;;;-4.16;91.91
77027;BME280;65956;52.986;17.490;2023-12-04T20:34:09;100510.89;;;-4.18;92.12
77027;BME280;65956;52.986;17.490;2023-12-04T20:36:35;100505.89;;;-4.19;92.05
77027;BME280;65956;52.986;17.490;2023-12-04T20:39:02;100504.64;;;-4.19;91.84
77027;BME280;65956;52.986;17.490;2023-12-04T20:41:29;100497.77;;;-4.20;92.05
77027;BME280;65956;52.986;17.490;2023-12-04T20:43:55;100498.53;;;-4.20;92.31
77027;BME280;65956;52.986;17.490;2023-12-04T20:46:21;100499.84;;;-4.21;92.01
77027;BME280;65956;52.986;17.490;2023-12-04T20:48:48;100506.41;;;-4.22;92.26
77027;BME280;65956;52.986;17.490;2023-12-04T20:51:17;100507.13;;;-4.23;92.11
77027;BME280;65956;52.986;17.490;2023-12-04T20:53:43;100506.92;;;-4.23;92.42
77027;BME280;65956;52.986;17.490;2023-12-04T20:56:10;100509.96;;;-4.23;92.15
77027;BME280;65956;52.986;17.490;2023-12-04T20:58:38;100508.88;;;-4.24;92.11
77027;BME280;65956;52.986;17.490;2023-12-04T21:01:05;100510.66;;;-4.27;92.29
77027;BME280;65956;52.986;17.490;2023-12-04T21:03:31;100516.20;;;-4.30;91.88
77027;BME280;65956;52.986;17.490;2023-12-04T21:05:57;100516.63;;;-4.33;92.10
77027;BME280;65956;52.986;17.490;2023-12-04T21:08:23;100521.14;;;-4.38;92.00
77027;BME280;65956;52.986;17.490;2023-12-04T21:10:49;100523.58;;;-4.44;92.06
77027;BME280;65956;52.986;17.490;2023-12-04T21:13:15;100523.95;;;-4.47;92.19
77027;BME280;65956;52.986;17.490;2023-12-04T21:15:41;100521.93;;;-4.50;92.38
77027;BME280;65956;52.986;17.490;2023-12-04T21:18:07;100518.77;;;-4.54;91.98
77027;BME280;65956;52.986;17.490;2023-12-04T21:20:33;100518.27;;;-4.59;91.97
77027;BME280;65956;52.986;17.490;2023-12-04T21:22:59;100516.52;;;-4.62;92.11
77027;BME280;65956;52.986;17.490;2023-12-04T21:25:25;100513.73;;;-4.66;92.31
77027;BME280;65956;52.986;17.490;2023-12-04T21:27:51;100509.36;;;-4.70;92.12
77027;BME280;65956;52.986;17.490;2023-12-04T21:30:17;100506.48;;;-4.74;92.16
77027;BME280;65956;52.986;17.490;2023-12-04T21:32:44;100503.03;;;-4.79;92.17
77027;BME280;65956;52.986;17.490;2023-12-04T21:35:10;100495.39;;;-4.83;92.13
77027;BME280;65956;52.986;17.490;2023-12-04T21:37:37;100491.73;;;-4.89;91.90
77027;BME280;65956;52.986;17.490;2023-12-04T21:40:05;100488.17;;;-4.97;92.02
77027;BME280;65956;52.986;17.490;2023-12-04T21:42:31;100484.40;;;-5.04;91.97
77027;BME280;65956;52.986;17.490;2023-12-04T21:44:57;100478.50;;;-5.13;91.96
77027;BME280;65956;52.986;17.490;2023-12-04T21:47:23;100473.69;;;-5.21;92.00
77027;BME280;65956;52.986;17.490;2023-12-04T21:49:50;100471.48;;;-5.27;92.24
77027;BME280;65956;52.986;17.490;2023-12-04T21:52:16;100471.95;;;-5.32;92.11
77027;BME280;65956;52.986;17.490;2023-12-04T21:54:43;100469.63;;;-5.38;92.21
77027;BME280;65956;52.986;17.490;2023-12-04T21:57:09;100471.56;;;-5.40;92.06
77027;BME280;65956;52.986;17.490;2023-12-04T21:59:35;100470.69;;;-5.44;92.35
77027;BME280;65956;52.986;17.490;2023-12-04T22:02:02;100467.67;;;-5.47;92.56
77027;BME280;65956;52.986;17.490;2023-12-04T22:04:28;100466.36;;;-5.50;92.38
77027;BME280;65956;52.986;17.490;2023-12-04T22:06:54;100469.23;;;-5.54;92.80
77027;BME280;65956;52.986;17.490;2023-12-04T22:09:20;100471.52;;;-5.56;92.75
77027;BME280;65956;52.986;17.490;2023-12-04T22:11:46;100475.75;;;-5.60;92.58
77027;BME280;65956;52.986;17.490;2023-12-04T22:14:12;100472.31;;;-5.63;92.58
77027;BME280;65956;52.986;17.490;2023-12-04T22:16:39;100467.02;;;-5.66;92.71
77027;BME280;65956;52.986;17.490;2023-12-04T22:19:12;100469.44;;;-5.69;92.55
77027;BME280;65956;52.986;17.490;2023-12-04T22:21:43;100468.98;;;-5.74;92.33
77027;BME280;65956;52.986;17.490;2023-12-04T22:24:10;100469.86;;;-5.79;92.03
77027;BME280;65956;52.986;17.490;2023-12-04T22:26:43;100466.84;;;-5.86;92.02
77027;BME280;65956;52.986;17.490;2023-12-04T22:29:41;100464.08;;;-5.96;92.05
77027;BME280;65956;52.986;17.490;2023-12-04T22:32:17;100457.98;;;-6.05;91.84
77027;BME280;65956;52.986;17.490;2023-12-04T22:34:44;100456.12;;;-6.09;92.01
77027;BME280;65956;52.986;17.490;2023-12-04T22:37:13;100454.77;;;-6.15;92.30
77027;BME280;65956;52.986;17.490;2023-12-04T22:39:39;100450.38;;;-6.21;92.38
77027;BME280;65956;52.986;17.490;2023-12-04T22:42:07;100447.58;;;-6.26;92.65
77027;BME280;65956;52.986;17.490;2023-12-04T22:44:34;100443.37;;;-6.29;92.91
77027;BME280;65956;52.986;17.490;2023-12-04T22:47:01;100436.69;;;-6.31;92.79
77027;BME280;65956;52.986;17.490;2023-12-04T22:49:27;100432.30;;;-6.31;93.43
77027;BME280;65956;52.986;17.490;2023-12-04T22:51:53;100426.56;;;-6.31;93.71
77027;BME280;65956;52.986;17.490;2023-12-04T22:54:40;100422.52;;;-6.33;93.39
77027;BME280;65956;52.986;17.490;2023-12-04T22:57:13;100425.27;;;-6.36;93.40
77027;BME280;65956;52.986;17.490;2023-12-04T22:59:41;100426.91;;;-6.39;93.21
77027;BME280;65956;52.986;17.490;2023-12-04T23:02:08;100423.96;;;-6.42;93.35
77027;BME280;65956;52.986;17.490;2023-12-04T23:04:45;100425.62;;;-6.45;93.23
77027;BME280;65956;52.986;17.490;2023-12-04T23:08:09;100426.21;;;-6.50;93.34
77027;BME280;65956;52.986;17.490;2023-12-04T23:11:04;100423.41;;;-6.56;93.29
77027;BME280;65956;52.986;17.490;2023-12-04T23:13:55;100415.83;;;-6.61;93.22
77027;BME280;65956;52.986;17.490;2023-12-04T23:16:23;100415.10;;;-6.64;93.29
77027;BME280;65956;52.986;17.490;2023-12-04T23:18:56;100412.80;;;-6.67;93.51
77027;BME280;65956;52.986;17.490;2023-12-04T23:21:24;100415.14;;;-6.69;93.56
77027;BME280;65956;52.986;17.490;2023-12-04T23:23:50;100409.67;;;-6.70;93.59
77027;BME280;65956;52.986;17.490;2023-12-04T23:26:20;100403.73;;;-6.73;93.37
77027;BME280;65956;52.986;17.490;2023-12-04T23:28:49;100396.77;;;-6.76;93.61
77027;BME280;65956;52.986;17.490;2023-12-04T23:31:18;100397.88;;;-6.78;93.73
77027;BME280;65956;52.986;17.490;2023-12-04T23:33:48;100398.38;;;-6.79;93.77
77027;BME280;65956;52.986;17.490;2023-12-04T23:36:18;100399.61;;;-6.80;93.72
77027;BME280;65956;52.986;17.490;2023-12-04T23:38:44;100401.95;;;-6.80;93.74
77027;BME280;65956;52.986;17.490;2023-12-04T23:41:11;100393.59;;;-6.81;93.37
77027;BME280;65956;52.986;17.490;2023-12-04T23:43:42;100395.59;;;-6.82;93.40
77027;BME280;65956;52.986;17.490;2023-12-04T23:46:08;100392.59;;;-6.84;93.63
77027;BME280;65956;52.986;17.490;2023-12-04T23:48:34;100384.70;;;-6.87;93.52
77027;BME280;65956;52.986;17.490;2023-12-04T23:51:02;100385.73;;;-6.88;93.58
77027;BME280;65956;52.986;17.490;2023-12-04T23:53:28;100386.64;;;-6.89;93.75
77027;BME280;65956;52.986;17.490;2023-12-04T23:55:54;100387.97;;;-6.90;93.44
77027;BME280;65956;52.986;17.490;2023-12-04T23:58:21;100387.26;;;-6.92;93.42
